M I D A S
Marine Information and Data Acquisition System
Tripno 725 of the Zeeleeuw from 2004-05-28 07:30:34 to 2004-05-28 13:58:28
Back to CruiseResearch ActivitiesStationsMapUnderway DataData graphs

EquipmentUnitsComment
TimeDGPSUTC
LatitudeDGPSDM.mWGS84
LongitudeDGPSDM.mWGS84
HeadingGyrodeg 
SOGDGPSknotsSpeed over ground
COGDGPSdegCourse over ground
DepthEcho soundermeters200 kHz
Missing or incorrect values are displayed as -999
Navigation data collected by the RV Zeeleeuw from 2004-05-28 07:30:34 to 2004-05-28 13:58:28
                                                                                    Next 1000 lines
Time Latitude Longitude Heading SOG COG Depth
2004-05-28 07:30:47 51°9.118 2°34.795 289.3 2.7 299 19
2004-05-28 07:30:54 51°9.121 2°34.788 288.2 2.7 299 18.7
2004-05-28 07:30:59 51°9.123 2°34.782 286.9 2.6 299 17.8
2004-05-28 07:31:04 51°9.124 2°34.777 285.7 2.6 296 17.9
2004-05-28 07:31:10 51°9.126 2°34.771 284.6 2.6 298 18.1
2004-05-28 07:31:14 51°9.127 2°34.767 283.5 2.5 294 18.3
2004-05-28 07:31:19 51°9.129 2°34.762 282.6 2.5 296 18.3
2004-05-28 07:31:23 51°9.13 2°34.758 281.6 2.5 293 18.5
2004-05-28 07:31:29 51°9.131 2°34.752 280.8 2.4 293 18.7
2004-05-28 07:31:34 51°9.133 2°34.747 280 2.5 294 17.9
2004-05-28 07:31:43 51°9.135 2°34.738 278.7 2.4 292 17.8
2004-05-28 07:31:50 51°9.137 2°34.731 278.1 2.4 292 18
2004-05-28 07:31:52 51°9.137 2°34.729 277.7 2.4 292 18.1
2004-05-28 07:31:59 51°9.139 2°34.722 277.2 2.4 291 17.7
2004-05-28 07:32:04 51°9.14 2°34.717 277 2.4 290 17.6
2004-05-28 07:32:09 51°9.141 2°34.712 276.5 2.4 290 17.6
2004-05-28 07:32:14 51°9.142 2°34.707 276.1 2.4 291 17.8
2004-05-28 07:32:19 51°9.143 2°34.702 275.6 2.4 288 18
2004-05-28 07:32:23 51°9.144 2°34.698 275 2.4 290 18.2
2004-05-28 07:32:28 51°9.145 2°34.693 274.6 2.4 289 17.4
2004-05-28 07:32:34 51°9.146 2°34.687 274.1 2.4 286 15.7
2004-05-28 07:32:40 51°9.147 2°34.681 273.6 2.4 288 47.5
2004-05-28 07:32:42 51°9.147 2°34.679 273.2 2.3 286 51.3
2004-05-28 07:32:50 51°9.149 2°34.671 272.7 2.4 288 43.5
2004-05-28 07:32:53 51°9.15 2°34.668 272.4 2.4 286 54
2004-05-28 07:33:00 51°9.151 2°34.661 272.2 2.4 287 53.7
2004-05-28 07:33:04 51°9.152 2°34.657 272 2.4 286 17.7
2004-05-28 07:33:08 51°9.153 2°34.653 271.9 2.3 285 17.8
2004-05-28 07:33:14 51°9.154 2°34.647 271.4 2.3 284 35.1
2004-05-28 07:33:19 51°9.155 2°34.642 270.7 2.3 284 46.6
2004-05-28 07:33:24 51°9.156 2°34.637 270 2.3 285 51.4
2004-05-28 07:33:30 51°9.156 2°34.631 269.2 2.3 283 34.8
2004-05-28 07:33:34 51°9.157 2°34.627 268.4 2.3 282 36
2004-05-28 07:33:39 51°9.157 2°34.622 267.8 2.3 282 32.6
2004-05-28 07:33:44 51°9.158 2°34.617 266.8 2.2 280 34.8
2004-05-28 07:33:50 51°9.159 2°34.612 265.3 2.2 281 50.7
2004-05-28 07:33:54 51°9.159 2°34.608 264.1 2.2 275 17.9
2004-05-28 07:33:59 51°9.159 2°34.603 262.7 2.2 276 17.9
2004-05-28 07:34:03 51°9.159 2°34.599 261.4 2.1 271 18.1
2004-05-28 07:34:10 51°9.159 2°34.593 259.8 2.1 271 17.9
2004-05-28 07:34:14 51°9.159 2°34.589 258.5 2.1 268 18.1
2004-05-28 07:34:20 51°9.159 2°34.584 257.3 2.1 265 18
2004-05-28 07:34:22 51°9.158 2°34.582 255.9 2.2 266 18.2
2004-05-28 07:34:30 51°9.158 2°34.574 255 2.2 262 18.3
2004-05-28 07:34:34 51°9.158 2°34.57 254.7 2.2 263 18.3
2004-05-28 07:34:39 51°9.157 2°34.565 254.2 2.3 263 18.3
2004-05-28 07:34:43 51°9.157 2°34.561 253.8 2.3 262 18.4
2004-05-28 07:34:49 51°9.156 2°34.555 253.3 2.3 262 18.4
2004-05-28 07:34:54 51°9.156 2°34.55 252.9 2.4 262 18.6
2004-05-28 07:35:03 51°9.155 2°34.541 252.1 2.4 260 18.5
2004-05-28 07:35:10 51°9.154 2°34.534 251.7 2.4 261 18.5
2004-05-28 07:35:14 51°9.153 2°34.53 251 2.4 258 18.5
2004-05-28 07:35:19 51°9.153 2°34.524 250.8 2.4 258 18.6
2004-05-28 07:35:24 51°9.152 2°34.519 250.5 2.4 258 18.4
2004-05-28 07:35:30 51°9.151 2°34.513 250.1 2.5 258 18.4
2004-05-28 07:35:32 51°9.151 2°34.511 250 2.5 257 18.4
2004-05-28 07:35:39 51°9.15 2°34.503 249.9 2.5 257 18.5
2004-05-28 07:35:44 51°9.149 2°34.498 249.9 2.5 254 18.3
2004-05-28 07:35:50 51°9.148 2°34.492 249.6 2.5 258 18.4
2004-05-28 07:35:54 51°9.147 2°34.488 249.4 2.5 253 18.6
2004-05-28 07:35:59 51°9.146 2°34.482 249.1 2.5 257 18.4
2004-05-28 07:36:02 51°9.146 2°34.479 248.9 2.5 254 18.1
2004-05-28 07:36:10 51°9.144 2°34.471 248.6 2.5 254 18
2004-05-28 07:36:14 51°9.143 2°34.467 248.6 2.5 252 18.4
2004-05-28 07:36:16 51°9.143 2°34.464 248.4 2.5 257 18
2004-05-28 07:36:28 51°9.141 2°34.451 248.7 2.6 257 18.1
2004-05-28 07:36:34 51°9.14 2°34.445 248.7 2.5 252 18.2
2004-05-28 07:36:38 51°9.139 2°34.441 249 2.5 255 18.2
2004-05-28 07:36:43 51°9.138 2°34.435 249.2 2.6 255 18.2
2004-05-28 07:36:48 51°9.137 2°34.43 249.3 2.6 256 18.4
2004-05-28 07:36:53 51°9.136 2°34.424 249.3 2.6 254 18.3
2004-05-28 07:36:58 51°9.136 2°34.419 249.6 2.6 256 18.3
2004-05-28 07:37:03 51°9.135 2°34.413 249.6 2.6 255 18.6
2004-05-28 07:37:08 51°9.134 2°34.408 249.6 2.5 253 18.5
2004-05-28 07:37:14 51°9.133 2°34.402 249.3 2.6 256 18.7
2004-05-28 07:37:18 51°9.132 2°34.397 249.1 2.6 256 18.7
2004-05-28 07:37:22 51°9.131 2°34.393 249.3 2.5 254 18.8
2004-05-28 07:37:34 51°9.129 2°34.38 249.3 2.5 255 18.8
2004-05-28 07:37:41 51°9.128 2°34.373 249.4 2.5 256 18.8
2004-05-28 07:37:46 51°9.127 2°34.367 249.4 2.5 253 18.9
2004-05-28 07:37:51 51°9.126 2°34.362 249.2 2.5 256 18.9
2004-05-28 07:37:56 51°9.125 2°34.356 249.1 2.5 254 18.9
2004-05-28 07:38:08 51°9.123 2°34.344 249.4 2.5 255 18.7
2004-05-28 07:38:13 51°9.122 2°34.338 249.4 2.5 255 18.7
2004-05-28 07:38:19 51°9.121 2°34.332 249.6 2.5 257 18.6
2004-05-28 07:38:23 51°9.12 2°34.327 249.6 2.6 254 18.6
2004-05-28 07:38:28 51°9.119 2°34.322 249.6 2.6 256 18.7
2004-05-28 07:38:33 51°9.119 2°34.316 249.6 2.6 256 18.7
2004-05-28 07:38:39 51°9.117 2°34.309 249.9 2.7 255 18.6
2004-05-28 07:38:43 51°9.117 2°34.304 250 2.7 257 18.8
2004-05-28 07:38:46 51°9.116 2°34.301 250.2 2.8 257 18
2004-05-28 07:38:54 51°9.115 2°34.292 250.4 2.7 256 18.1
2004-05-28 07:38:58 51°9.114 2°34.287 250.3 2.8 257 18.1
2004-05-28 07:39:02 51°9.113 2°34.282 250.4 2.8 254 18
2004-05-28 07:39:06 51°9.112 2°34.277 250.4 2.8 257 18.1
2004-05-28 07:39:13 51°9.111 2°34.269 250.5 2.8 256 18
2004-05-28 07:39:19 51°9.11 2°34.261 250.5 2.8 255 17.9
2004-05-28 07:39:23 51°9.109 2°34.257 250.4 2.8 255 18.1
2004-05-28 07:39:28 51°9.108 2°34.25 250.2 2.9 256 17.9
2004-05-28 07:39:32 51°9.107 2°34.245 250.1 2.9 255 18.1
2004-05-28 07:39:39 51°9.106 2°34.237 250.1 2.9 256 18.4
2004-05-28 07:39:44 51°9.105 2°34.231 250 2.9 254 18.1
2004-05-28 07:39:48 51°9.104 2°34.226 249.7 2.9 257 18.2
2004-05-28 07:39:52 51°9.103 2°34.221 249.7 2.9 254 18.3
2004-05-28 07:39:59 51°9.101 2°34.212 249.7 2.9 255 18.3
2004-05-28 07:40:02 51°9.101 2°34.208 249.6 3 255 18.4
2004-05-28 07:40:06 51°9.1 2°34.203 249.6 3 254 18.5
2004-05-28 07:40:12 51°9.099 2°34.195 249.6 2.9 254 18.4
2004-05-28 07:40:18 51°9.098 2°34.188 249.6 3 255 18.2
2004-05-28 07:40:23 51°9.096 2°34.182 249.5 2.9 255 18.4
2004-05-28 07:40:28 51°9.095 2°34.175 249.6 3 253 18.4
2004-05-28 07:40:32 51°9.095 2°34.17 249.4 3 256 18.5
2004-05-28 07:40:38 51°9.093 2°34.163 249.1 3 254 18.4
2004-05-28 07:40:42 51°9.092 2°34.158 249.2 3 254 18.6
2004-05-28 07:40:46 51°9.091 2°34.153 249.1 3 252 18.6
2004-05-28 07:40:54 51°9.089 2°34.143 248.7 3 253 18.7
2004-05-28 07:40:59 51°9.088 2°34.136 248.3 3 253 18.5
2004-05-28 07:41:03 51°9.087 2°34.131 248.3 2.9 251 18.6
2004-05-28 07:41:08 51°9.086 2°34.125 248.1 3 252 18.6
2004-05-28 07:41:13 51°9.084 2°34.119 247.9 3 251 18.7
2004-05-28 07:41:18 51°9.083 2°34.113 247.9 3 251 18.6
2004-05-28 07:41:22 51°9.082 2°34.108 247.9 3 251 18.6
2004-05-28 07:41:28 51°9.08 2°34.1 248 3 251 18.6
2004-05-28 07:41:31 51°9.08 2°34.097 248.2 3 253 18.6
2004-05-28 07:41:46 51°9.076 2°34.078 248.9 2.9 253 18.7
2004-05-28 07:41:50 51°9.075 2°34.073 249.3 3 255 18.8
2004-05-28 07:41:55 51°9.074 2°34.067 249.5 2.9 255 18.9
2004-05-28 07:41:58 51°9.074 2°34.063 249.6 2.9 256 18.9
2004-05-28 07:42:03 51°9.073 2°34.056 249.9 2.9 255 18.9
2004-05-28 07:42:10 51°9.071 2°34.048 250 2.9 255 18.5
2004-05-28 07:42:16 51°9.07 2°34.04 250 2.9 255 18.8
2004-05-28 07:42:20 51°9.069 2°34.035 250 2.9 257 18.8
2004-05-28 07:42:26 51°9.068 2°34.028 250.3 2.9 257 18.5
2004-05-28 07:42:31 51°9.067 2°34.022 250.3 2.9 258 18.5
2004-05-28 07:42:35 51°9.066 2°34.017 250.3 2.8 254 18.6
2004-05-28 07:42:40 51°9.066 2°34.011 250.1 2.8 255 18.6
2004-05-28 07:42:46 51°9.064 2°34.004 250.2 2.8 255 18.6
2004-05-28 07:42:47 51°9.064 2°34.002 250 2.9 257 18.8
2004-05-28 07:42:55 51°9.063 2°33.993 250 2.8 253 18.5
2004-05-28 07:43:00 51°9.062 2°33.987 249.9 2.8 256 18.6
2004-05-28 07:43:05 51°9.06 2°33.981 249.3 2.8 253 18.1
2004-05-28 07:43:10 51°9.059 2°33.975 249.1 2.8 254 18.4
2004-05-28 07:43:15 51°9.058 2°33.969 248.6 2.8 253 18.1
2004-05-28 07:43:20 51°9.057 2°33.963 248.6 2.8 255 18.2
2004-05-28 07:43:25 51°9.056 2°33.957 248.4 2.8 252 18.3
2004-05-28 07:43:31 51°9.055 2°33.95 248.5 2.8 251 18.3
2004-05-28 07:43:35 51°9.054 2°33.945 248.5 2.8 256 18.5
2004-05-28 07:43:40 51°9.053 2°33.939 248.5 2.8 253 18.3
2004-05-28 07:43:44 51°9.052 2°33.934 248.7 2.8 255 18.3
2004-05-28 07:43:50 51°9.051 2°33.927 248.8 2.8 252 18.1
2004-05-28 07:43:54 51°9.05 2°33.922 248.8 2.8 255 18.2
2004-05-28 07:44:00 51°9.049 2°33.915 248.8 2.9 257 18.4
2004-05-28 07:44:05 51°9.047 2°33.909 249.1 2.8 252 18.2
2004-05-28 07:44:11 51°9.046 2°33.902 249.4 2.8 255 18.3
2004-05-28 07:44:15 51°9.045 2°33.897 249.2 2.8 255 18.3
2004-05-28 07:44:21 51°9.044 2°33.89 249.4 2.8 255 18.5
2004-05-28 07:44:26 51°9.043 2°33.884 249.5 2.8 254 18.4
2004-05-28 07:44:30 51°9.043 2°33.879 249.5 2.9 255 18.4
2004-05-28 07:44:35 51°9.042 2°33.873 249.5 2.8 255 18.5
2004-05-28 07:44:39 51°9.041 2°33.868 249.6 2.8 255 18.6
2004-05-28 07:44:46 51°9.039 2°33.859 249.6 2.8 254 18.6
2004-05-28 07:44:50 51°9.038 2°33.855 249.5 2.8 254 18.6
2004-05-28 07:44:54 51°9.038 2°33.85 249.4 2.8 254 18.6
2004-05-28 07:45:00 51°9.036 2°33.843 249.2 2.8 251 18.6
2004-05-28 07:45:06 51°9.035 2°33.835 249.1 2.9 257 18.7
2004-05-28 07:45:11 51°9.034 2°33.829 249.1 2.8 254 18.7
2004-05-28 07:45:14 51°9.034 2°33.826 249.2 2.8 255 18.7
2004-05-28 07:45:27 51°9.031 2°33.81 249.4 2.8 253 18.8
2004-05-28 07:45:32 51°9.03 2°33.804 249.6 2.8 255 18.8
2004-05-28 07:45:38 51°9.029 2°33.797 249.6 2.8 257 18.8
2004-05-28 07:45:48 51°9.027 2°33.785 250.1 2.8 256 19
2004-05-28 07:45:53 51°9.026 2°33.779 250.1 2.8 256 19
2004-05-28 07:45:59 51°9.025 2°33.772 250.4 2.8 258 19
2004-05-28 07:46:03 51°9.024 2°33.767 250.6 2.8 256 19.1
2004-05-28 07:46:08 51°9.024 2°33.761 250.4 2.8 257 19.1
2004-05-28 07:46:13 51°9.023 2°33.755 250.4 2.8 256 19.1
2004-05-28 07:46:18 51°9.021 2°33.749 250.4 2.8 257 19.2
2004-05-28 07:46:23 51°9.021 2°33.742 250.4 2.8 256 19.3
2004-05-28 07:46:28 51°9.02 2°33.736 250.2 2.8 257 19.4
2004-05-28 07:46:33 51°9.019 2°33.731 250 2.8 254 19.4
2004-05-28 07:46:39 51°9.018 2°33.724 249.2 2.8 256 19.5
2004-05-28 07:46:44 51°9.017 2°33.718 248.6 2.7 253 19.6
2004-05-28 07:46:46 51°9.016 2°33.716 248 2.7 253 19.6
2004-05-28 07:46:52 51°9.015 2°33.709 247.1 2.7 253 19.6
2004-05-28 07:46:58 51°9.013 2°33.702 246.4 2.7 253 19.6
2004-05-28 07:47:03 51°9.012 2°33.696 246 2.7 251 19.6
2004-05-28 07:47:08 51°9.011 2°33.691 245.4 2.7 250 19.6
2004-05-28 07:47:12 51°9.01 2°33.687 244.8 2.7 252 19.6
2004-05-28 07:47:18 51°9.009 2°33.68 244.3 2.7 253 19.6
2004-05-28 07:47:22 51°9.008 2°33.676 244.1 2.6 245 19.6
2004-05-28 07:47:26 51°9.007 2°33.672 243.5 2.7 250 19.6
2004-05-28 07:47:33 51°9.005 2°33.664 242.9 2.6 244 19.7
2004-05-28 07:47:38 51°9.003 2°33.659 242.5 2.7 249 19.6
2004-05-28 07:47:43 51°9.002 2°33.654 241.9 2.7 247 19.7
2004-05-28 07:47:47 51°9 2°33.649 241.6 2.6 244 19.7
2004-05-28 07:47:53 51°8.999 2°33.643 241.5 2.7 247 19.4
2004-05-28 07:47:58 51°8.997 2°33.638 241 2.7 245 19.7
2004-05-28 07:48:03 51°8.995 2°33.632 240.9 2.7 244 19.7
2004-05-28 07:48:06 51°8.994 2°33.629 240.6 2.7 244 19.7
2004-05-28 07:48:14 51°8.991 2°33.621 240.7 2.6 244 19.6
2004-05-28 07:48:16 51°8.991 2°33.619 240.4 2.7 244 19.6
2004-05-28 07:48:23 51°8.988 2°33.611 240.4 2.7 242 19.6
2004-05-28 07:48:28 51°8.987 2°33.606 240.4 2.7 244 19.6
2004-05-28 07:48:30 51°8.986 2°33.604 240.3 2.7 245 19.6
2004-05-28 07:48:39 51°8.983 2°33.594 240.6 2.7 245 19.7
2004-05-28 07:48:44 51°8.982 2°33.589 240.7 2.7 242 19.7
2004-05-28 07:48:47 51°8.981 2°33.586 240.6 2.7 245 19.7
2004-05-28 07:48:53 51°8.979 2°33.58 240.7 2.7 245 19.6
2004-05-28 07:48:59 51°8.977 2°33.573 240.7 2.7 245 19.6
2004-05-28 07:49:03 51°8.975 2°33.569 240.5 2.7 241 19.7
2004-05-28 07:49:08 51°8.973 2°33.564 240.6 2.7 246 19.6
2004-05-28 07:49:13 51°8.972 2°33.558 240.4 2.7 243 19.7
2004-05-28 07:49:19 51°8.97 2°33.552 240.4 2.7 241 19.7
2004-05-28 07:49:22 51°8.969 2°33.549 240.4 2.7 244 19.7
2004-05-28 07:49:28 51°8.967 2°33.542 240.4 2.7 242 19.5
2004-05-28 07:49:34 51°8.965 2°33.536 240.4 2.7 243 19.6
2004-05-28 07:49:36 51°8.964 2°33.534 240.4 2.8 244 19.7
2004-05-28 07:49:48 51°8.96 2°33.521 240.9 2.7 242 19.2
2004-05-28 07:49:53 51°8.958 2°33.516 240.5 2.7 245 19.6
2004-05-28 07:49:58 51°8.957 2°33.511 240.9 2.7 242 19.7
2004-05-28 07:50:02 51°8.955 2°33.506 240.9 2.7 245 19.7
2004-05-28 07:50:08 51°8.954 2°33.5 241.1 2.7 244 19.7
2004-05-28 07:50:14 51°8.952 2°33.493 241.5 2.7 244 19.8
2004-05-28 07:50:18 51°8.95 2°33.489 241.7 2.7 244 19.7
2004-05-28 07:50:23 51°8.949 2°33.483 241.7 2.7 246 19.7
2004-05-28 07:50:28 51°8.947 2°33.478 241.8 2.7 244 19.8
2004-05-28 07:50:33 51°8.945 2°33.473 241.8 2.7 246 19.6
2004-05-28 07:50:39 51°8.943 2°33.466 241.8 2.7 243 19.7
2004-05-28 07:50:43 51°8.942 2°33.462 241.6 2.7 247 19.8
2004-05-28 07:50:48 51°8.941 2°33.457 241.9 2.7 245 19.7
2004-05-28 07:50:53 51°8.939 2°33.451 242 2.7 246 19.8
2004-05-28 07:50:58 51°8.937 2°33.446 242.2 2.7 244 19.6
2004-05-28 07:51:03 51°8.936 2°33.44 242.4 2.8 249 19.7
2004-05-28 07:51:08 51°8.934 2°33.435 242.6 2.7 243 19.7
2004-05-28 07:51:13 51°8.933 2°33.429 242.8 2.7 248 19.7
2004-05-28 07:51:19 51°8.931 2°33.422 242.9 2.8 248 19.7
2004-05-28 07:51:24 51°8.929 2°33.417 243 2.7 246 19.7
2004-05-28 07:51:26 51°8.929 2°33.414 243 2.8 248 19.7
2004-05-28 07:51:32 51°8.927 2°33.407 243.1 2.7 246 19.7
2004-05-28 07:51:38 51°8.925 2°33.401 243.1 2.7 246 19.7
2004-05-28 07:51:43 51°8.924 2°33.395 242.9 2.8 247 19.7
2004-05-28 07:51:48 51°8.922 2°33.39 242.7 2.7 245 19.8
2004-05-28 07:51:52 51°8.921 2°33.386 242.7 2.8 247 19.7
2004-05-28 07:51:58 51°8.919 2°33.379 242.5 2.8 247 19.6
2004-05-28 07:52:02 51°8.918 2°33.375 242.4 2.8 246 19.7
2004-05-28 07:52:06 51°8.917 2°33.37 242.7 2.8 244 19.7
2004-05-28 07:52:13 51°8.915 2°33.363 242.6 2.8 249 19.7
2004-05-28 07:52:18 51°8.913 2°33.357 242.8 2.7 245 19.7
2004-05-28 07:52:23 51°8.912 2°33.351 243 2.8 250 19.7
2004-05-28 07:52:27 51°8.91 2°33.347 243.1 2.8 245 19.7
2004-05-28 07:52:34 51°8.908 2°33.339 243 2.8 249 19.8
2004-05-28 07:52:38 51°8.907 2°33.334 243 2.8 246 19.8
2004-05-28 07:52:43 51°8.906 2°33.329 243 2.8 249 19.7
2004-05-28 07:52:46 51°8.904 2°33.325 242.8 2.7 243 19.8
2004-05-28 07:52:54 51°8.902 2°33.316 242.7 2.8 250 19.8
2004-05-28 07:52:56 51°8.901 2°33.314 242.4 2.8 249 19.8
2004-05-28 07:53:03 51°8.899 2°33.306 242.4 2.8 243 19.8
2004-05-28 07:53:08 51°8.897 2°33.3 242.3 2.8 246 19.8
2004-05-28 07:53:10 51°8.897 2°33.299 242.2 2.8 247 19.8
2004-05-28 07:53:19 51°8.894 2°33.288 242.3 2.8 244 19.8
2004-05-28 07:53:24 51°8.892 2°33.283 241.8 2.8 248 19.8
2004-05-28 07:53:27 51°8.892 2°33.28 241.9 2.8 246 19.9
2004-05-28 07:53:33 51°8.89 2°33.273 242 2.8 248 19.9
2004-05-28 07:53:39 51°8.888 2°33.266 242 2.8 248 19.9
2004-05-28 07:53:44 51°8.886 2°33.261 242 2.8 244 19.9
2004-05-28 07:53:47 51°8.885 2°33.257 241.8 2.8 247 19.9
2004-05-28 07:53:53 51°8.883 2°33.25 241.8 2.8 245 19.9
2004-05-28 07:53:59 51°8.882 2°33.243 241.8 2.8 246 19.9
2004-05-28 07:54:02 51°8.88 2°33.24 241.8 2.8 245 19.9
2004-05-28 07:54:08 51°8.879 2°33.233 241.8 2.8 246 19.9
2004-05-28 07:54:14 51°8.877 2°33.227 241.7 2.8 246 19.9
2004-05-28 07:54:16 51°8.876 2°33.224 241.7 2.8 247 20
2004-05-28 07:54:27 51°8.872 2°33.211 241.8 2.8 246 20
2004-05-28 07:54:32 51°8.87 2°33.205 241.8 2.8 244 20
2004-05-28 07:54:38 51°8.868 2°33.198 241.7 2.8 246 20
2004-05-28 07:54:43 51°8.867 2°33.192 241.6 2.8 245 20
2004-05-28 07:54:48 51°8.865 2°33.187 241.7 2.9 247 20
2004-05-28 07:54:54 51°8.863 2°33.181 241.8 2.8 246 20
2004-05-28 07:54:58 51°8.862 2°33.176 241.9 2.9 248 20
2004-05-28 07:55:03 51°8.86 2°33.17 242.2 2.9 244 20
2004-05-28 07:55:08 51°8.859 2°33.164 242.2 2.9 248 20
2004-05-28 07:55:13 51°8.857 2°33.158 242.1 2.8 244 20
2004-05-28 07:55:19 51°8.855 2°33.152 242.3 2.9 247 20
2004-05-28 07:55:23 51°8.854 2°33.147 242.4 2.9 246 19.9
2004-05-28 07:55:27 51°8.853 2°33.142 242.2 2.9 247 20
2004-05-28 07:55:33 51°8.851 2°33.135 242.2 2.8 245 20
2004-05-28 07:55:38 51°8.849 2°33.13 242.2 2.9 246 20
2004-05-28 07:55:43 51°8.848 2°33.124 242.3 2.8 246 19.9
2004-05-28 07:55:46 51°8.847 2°33.121 242.4 2.8 244 20
2004-05-28 07:55:54 51°8.844 2°33.112 242.4 2.9 247 20
2004-05-28 07:55:55 51°8.844 2°33.11 242.4 2.8 246 20
2004-05-28 07:56:03 51°8.841 2°33.101 242.5 2.9 247 20
2004-05-28 07:56:08 51°8.84 2°33.095 242.6 2.9 248 20
2004-05-28 07:56:13 51°8.838 2°33.089 242.7 2.9 246 20
2004-05-28 07:56:19 51°8.837 2°33.083 242.9 2.9 247 20
2004-05-28 07:56:24 51°8.835 2°33.077 242.9 2.9 248 20
2004-05-28 07:56:28 51°8.834 2°33.072 243.1 2.8 247 20
2004-05-28 07:56:34 51°8.832 2°33.065 243.1 2.9 248 20
2004-05-28 07:56:39 51°8.831 2°33.059 243.1 2.9 248 19.9
2004-05-28 07:56:42 51°8.83 2°33.055 243.2 2.9 248 20
2004-05-28 07:56:48 51°8.828 2°33.048 243.1 2.9 248 20
2004-05-28 07:56:54 51°8.826 2°33.041 243.2 2.9 248 20
2004-05-28 07:56:56 51°8.825 2°33.039 243.1 2.9 249 20
2004-05-28 07:57:08 51°8.822 2°33.024 243.2 2.9 248 20
2004-05-28 07:57:13 51°8.82 2°33.018 243.1 2.9 249 19.9
2004-05-28 07:57:18 51°8.819 2°33.012 242.9 2.9 249 19.9
2004-05-28 07:57:22 51°8.817 2°33.007 243.1 2.9 248 19.9
2004-05-28 07:57:28 51°8.816 2°33 242.8 2.9 249 20
2004-05-28 07:57:33 51°8.814 2°32.994 242.7 2.9 247 20
2004-05-28 07:57:39 51°8.813 2°32.987 242.8 2.9 251 20
2004-05-28 07:57:43 51°8.812 2°32.982 243.6 2.9 249 20
2004-05-28 07:57:48 51°8.811 2°32.976 245.5 3 256 19.9
2004-05-28 07:57:53 51°8.81 2°32.97 248.2 3 256 20
2004-05-28 07:57:59 51°8.809 2°32.962 251.6 3 261 19.9
2004-05-28 07:58:03 51°8.809 2°32.956 255.3 3.1 266 20
2004-05-28 07:58:08 51°8.809 2°32.949 258.8 3.1 269 19.9
2004-05-28 07:58:14 51°8.81 2°32.941 261.8 3.1 273 20
2004-05-28 07:58:18 51°8.81 2°32.936 266.1 3.2 279 20
2004-05-28 07:58:22 51°8.811 2°32.93 269.2 3.2 281 19.6
2004-05-28 07:58:28 51°8.813 2°32.922 273.2 3.2 286 20
2004-05-28 07:58:34 51°8.814 2°32.914 275.8 3.2 289 20
2004-05-28 07:58:37 51°8.815 2°32.91 279.7 3.3 293 20
2004-05-28 07:58:42 51°8.817 2°32.903 282.7 3.3 294 20
2004-05-28 07:58:49 51°8.82 2°32.894 285.8 3.3 299 20.1
2004-05-28 07:58:52 51°8.822 2°32.891 288.4 3.3 299 20
2004-05-28 07:58:59 51°8.826 2°32.882 291.8 3.4 305 20.1
2004-05-28 07:59:04 51°8.829 2°32.876 295.2 3.4 309 20.1
2004-05-28 07:59:08 51°8.831 2°32.872 298.7 3.4 312 20.1
2004-05-28 07:59:12 51°8.834 2°32.868 301.9 3.4 316 20
2004-05-28 07:59:18 51°8.838 2°32.862 305.4 3.5 318 19.9
2004-05-28 07:59:22 51°8.841 2°32.858 308.8 3.5 322 20.1
2004-05-28 07:59:26 51°8.844 2°32.855 312.9 3.3 326 20.1
2004-05-28 07:59:34 51°8.85 2°32.849 315.2 3.2 328 20.2
2004-05-28 07:59:39 51°8.854 2°32.846 317.9 3 333 20
2004-05-28 07:59:44 51°8.858 2°32.843 320.1 3 331 20.2
2004-05-28 07:59:49 51°8.861 2°32.84 322 2.9 336 20.2
2004-05-28 07:59:53 51°8.864 2°32.838 323.8 2.9 335 20.2
2004-05-28 07:59:58 51°8.868 2°32.836 325.4 2.7 337 20.2
2004-05-28 08:00:04 51°8.872 2°32.834 326.7 2.7 340 20.2
2004-05-28 08:00:08 51°8.875 2°32.832 328.1 2.7 340 20.2
2004-05-28 08:00:13 51°8.878 2°32.83 329.3 2.7 341 20.2
2004-05-28 08:00:19 51°8.883 2°32.828 330.4 2.6 343 20.2
2004-05-28 08:00:24 51°8.886 2°32.826 331.6 2.6 342 20.2
2004-05-28 08:00:26 51°8.887 2°32.826 332.4 2.6 343 20.2
2004-05-28 08:00:34 51°8.893 2°32.823 333.3 2.5 344 20.2
2004-05-28 08:00:39 51°8.896 2°32.822 334.4 2.5 346 20.2
2004-05-28 08:00:44 51°8.899 2°32.821 335.3 2.4 346 20.3
2004-05-28 08:00:48 51°8.902 2°32.82 336.2 2.4 349 20.2
2004-05-28 08:00:53 51°8.905 2°32.819 337.5 2.4 349 20.2
2004-05-28 08:00:58 51°8.908 2°32.818 338.5 2.3 349 20.2
2004-05-28 08:01:04 51°8.912 2°32.818 339.7 2.3 353 20.1
2004-05-28 08:01:08 51°8.915 2°32.817 340.7 2.3 351 20.1
2004-05-28 08:01:14 51°8.919 2°32.816 341.5 2.3 353 20
2004-05-28 08:01:19 51°8.922 2°32.816 342.4 2.2 352 20.1
2004-05-28 08:01:23 51°8.924 2°32.815 343.1 2.2 352 20.1
2004-05-28 08:01:28 51°8.927 2°32.814 343.6 2.2 352 20
2004-05-28 08:01:34 51°8.931 2°32.814 343.9 2.1 352 19.7
2004-05-28 08:01:38 51°8.933 2°32.813 344.1 2.1 352 20
2004-05-28 08:01:44 51°8.936 2°32.812 344.1 2.1 351 20
2004-05-28 08:01:48 51°8.939 2°32.812 344.1 2.1 350 20.1
2004-05-28 08:01:54 51°8.942 2°32.811 344.2 2 350 20
2004-05-28 08:01:58 51°8.944 2°32.81 344 2 349 20
2004-05-28 08:02:04 51°8.947 2°32.809 343.9 2 351 19.9
2004-05-28 08:02:08 51°8.949 2°32.808 344 2 349 19.9
2004-05-28 08:02:14 51°8.952 2°32.808 344 2 350 19.7
2004-05-28 08:02:18 51°8.955 2°32.807 344.3 2 349 19.9
2004-05-28 08:02:23 51°8.957 2°32.806 344.9 1.9 351 19.8
2004-05-28 08:02:28 51°8.96 2°32.806 345.4 1.9 350 19.8
2004-05-28 08:02:34 51°8.963 2°32.805 345.8 1.9 351 19.8
2004-05-28 08:02:38 51°8.965 2°32.805 346.4 1.9 351 19.7
2004-05-28 08:02:44 51°8.968 2°32.804 347.2 1.8 353 19.7
2004-05-28 08:02:48 51°8.97 2°32.804 348 1.8 354 19.6
2004-05-28 08:02:54 51°8.973 2°32.803 348.9 1.8 353 19.7
2004-05-28 08:02:58 51°8.975 2°32.803 349.8 1.8 355 19.6
2004-05-28 08:03:02 51°8.977 2°32.803 350.8 1.8 357 19.6
2004-05-28 08:03:08 51°8.98 2°32.802 351.8 1.7 356 19.6
2004-05-28 08:03:14 51°8.982 2°32.802 352.7 1.7 358 19.5
2004-05-28 08:03:19 51°8.985 2°32.802 353.4 1.7 356 19.5
2004-05-28 08:03:24 51°8.987 2°32.802 354.4 1.7 358 19.4
2004-05-28 08:03:28 51°8.989 2°32.802 355.3 1.9 1 19.4
2004-05-28 08:03:34 51°8.993 2°32.802 356.2 1.9   19.4
2004-05-28 08:03:38 51°8.995 2°32.802 357.2 2 1 19.3
2004-05-28 08:03:43 51°8.998 2°32.802 359.3 2.4 1 19.3
2004-05-28 08:03:48 51°9.002 2°32.803 4 2.6 5 19.2
2004-05-28 08:03:54 51°9.006 2°32.805 8.2 2.7 11 19.1
2004-05-28 08:03:58 51°9.009 2°32.806 13.7 2.9 14 19
2004-05-28 08:04:04 51°9.014 2°32.809 19.1 3 20 19
2004-05-28 08:04:08 51°9.017 2°32.812 24.6 3 25 19
2004-05-28 08:04:13 51°9.021 2°32.815 30.3 3.1 30 18.9
2004-05-28 08:04:19 51°9.025 2°32.82 35.8 3.2 36 18.9
2004-05-28 08:04:24 51°9.029 2°32.825 41.3 3.2 41 18.8
2004-05-28 08:04:28 51°9.031 2°32.829 46.8 3.3 43 18.8
2004-05-28 08:04:34 51°9.035 2°32.836 52.2 3.3 47 18.8
2004-05-28 08:04:38 51°9.037 2°32.841 56.8 3.5 51 18.8
2004-05-28 08:04:43 51°9.04 2°32.847 59.3 3.6 54 18.8
2004-05-28 08:04:48 51°9.043 2°32.854 60.9 3.6 54 18.8
2004-05-28 08:04:54 51°9.046 2°32.862 62.1 3.7 55 18.8
2004-05-28 08:04:58 51°9.049 2°32.868 62.7 3.8 56 18.7
2004-05-28 08:05:02 51°9.051 2°32.874 63.1 3.8 58 18.7
2004-05-28 08:05:07 51°9.054 2°32.881 63.5 3.8 58 18.7
2004-05-28 08:05:13 51°9.057 2°32.89 63.8 3.7 57 18.7
2004-05-28 08:05:18 51°9.06 2°32.897 64.3 3.7 59 18.6
2004-05-28 08:05:22 51°9.062 2°32.902 64.5 3.7 60 18.6
2004-05-28 08:05:28 51°9.065 2°32.911 64.7 3.7 59 18.6
2004-05-28 08:05:34 51°9.068 2°32.919 65 3.7 60 18.6
2004-05-28 08:05:38 51°9.07 2°32.925 65.1 3.7 60 18.6
2004-05-28 08:05:44 51°9.073 2°32.933 65.4 3.7 61 18.6
2004-05-28 08:05:48 51°9.075 2°32.939 65.9 3.7 62 18.5
2004-05-28 08:05:54 51°9.078 2°32.947 66.9 3.7 62 18.5
2004-05-28 08:05:59 51°9.08 2°32.955 68 3.7 63 18.4
2004-05-28 08:06:03 51°9.082 2°32.961 69.3 3.6 65 18.5
2004-05-28 08:06:07 51°9.083 2°32.966 70.9 3.6 67 18.4
2004-05-28 08:06:14 51°9.086 2°32.977 72.1 3.6 68 18.5
2004-05-28 08:06:18 51°9.087 2°32.983 74.2 3.6 69 18.5
2004-05-28 08:06:24 51°9.089 2°32.991 76 3.6 71 18.5
2004-05-28 08:06:28 51°9.09 2°32.998 77.6 3.6 72 18.5
2004-05-28 08:06:33 51°9.092 2°33.005 79.1 3.5 72 18.5
2004-05-28 08:06:39 51°9.094 2°33.014 80.5 3.5 73 18.5
2004-05-28 08:06:43 51°9.094 2°33.02 82 3.5 76 18.6
2004-05-28 08:06:48 51°9.096 2°33.028 83.2 3.5 77 18.6
2004-05-28 08:06:54 51°9.097 2°33.037 84.4 3.5 78 18.6
2004-05-28 08:06:58 51°9.098 2°33.043 85.6 3.5 79 18.4
2004-05-28 08:07:02 51°9.098 2°33.049 86.7 3.5 80 17.9
2004-05-28 08:07:08 51°9.099 2°33.058 88 3.5 83 18.6
2004-05-28 08:07:14 51°9.1 2°33.068 89.4 3.5 81 18.7
2004-05-28 08:07:18 51°9.1 2°33.074 90.7 3.5 84 18.7
2004-05-28 08:07:22 51°9.1 2°33.08 92.1 3.5 85 18.7
2004-05-28 08:07:28 51°9.101 2°33.089 93.4 3.5 85 18.7
2004-05-28 08:07:34 51°9.101 2°33.098 94.6 3.5 88 18.4
2004-05-28 08:07:38 51°9.101 2°33.104 95.6 3.5 90 18.7
2004-05-28 08:07:43 51°9.101 2°33.112 96.8 3.5 89 18.8
2004-05-28 08:07:46 51°9.101 2°33.117 98.1 3.5 91 18.8
2004-05-28 08:07:54 51°9.101 2°33.129 99 3.4 91 18.9
2004-05-28 08:07:59 51°9.101 2°33.136 99.8 3.5 93 18.9
2004-05-28 08:08:04 51°9.101 2°33.144 100.6 3.5 91 18.9
2004-05-28 08:08:08 51°9.1 2°33.15 101.2 3.5 94 18.9
2004-05-28 08:08:14 51°9.1 2°33.159 101.7 3.5 93 18.9
2004-05-28 08:08:18 51°9.1 2°33.165 102.3 3.5 93 19
2004-05-28 08:08:24 51°9.099 2°33.175 102.6 3.5 93 19
2004-05-28 08:08:28 51°9.099 2°33.181 102.8 3.5 95 19
2004-05-28 08:08:34 51°9.099 2°33.19 103 3.5 94 19
2004-05-28 08:08:39 51°9.098 2°33.198 103.3 3.5 93 19.1
2004-05-28 08:08:44 51°9.098 2°33.206 103.5 3.5 95 19.1
2004-05-28 08:08:48 51°9.098 2°33.212 103.6 3.5 96 19.2
2004-05-28 08:08:54 51°9.097 2°33.221 103.7 3.5 95 19.1
2004-05-28 08:08:58 51°9.097 2°33.227 103.7 3.5 95 19.1
2004-05-28 08:09:04 51°9.096 2°33.237 103.8 3.6 95 19.1
2004-05-28 08:09:08 51°9.096 2°33.243 103.9 3.5 93 19.2
2004-05-28 08:09:14 51°9.095 2°33.252 103.8 3.5 95 19.3
2004-05-28 08:09:18 51°9.095 2°33.258 103.8 3.5 93 19.2
2004-05-28 08:09:23 51°9.095 2°33.266 103.6 3.5 93 19.2
2004-05-28 08:09:27 51°9.094 2°33.272 103.4 3.5 94 19.2
2004-05-28 08:09:34 51°9.094 2°33.283 103.4 3.5 94 19.3
2004-05-28 08:09:39 51°9.094 2°33.291 103.1 3.5 92 19.4
2004-05-28 08:09:44 51°9.093 2°33.299 102.8 3.5 94 19.4
2004-05-28 08:09:48 51°9.093 2°33.305 102.8 3.6 92 19.4
2004-05-28 08:09:50 51°9.093 2°33.308 102.5 3.5 93 19.5
2004-05-28 08:09:58 51°9.093 2°33.321 102.3 3.6 92 19.5
2004-05-28 08:10:03 51°9.093 2°33.329 102.1 3.6 93 19.5
2004-05-28 08:10:08 51°9.093 2°33.337 101.7 3.6 92 19.6
2004-05-28 08:10:14 51°9.093 2°33.346 101.6 3.6 93 19.5
2004-05-28 08:10:18 51°9.092 2°33.352 101.5 3.6 91 19.2
2004-05-28 08:10:24 51°9.092 2°33.362 101.4 3.6 92 19.5
2004-05-28 08:10:28 51°9.092 2°33.368 101.4 3.6 91 19.5
2004-05-28 08:10:32 51°9.092 2°33.375 101.3 3.6 92 19.5
2004-05-28 08:10:38 51°9.092 2°33.384 101.2 3.6 91 19.6
2004-05-28 08:10:43 51°9.092 2°33.392 101 3.6 92 19.6
2004-05-28 08:10:48 51°9.092 2°33.4 100.9 3.6 91 19.6
2004-05-28 08:10:54 51°9.091 2°33.41 101 3.6 91 19.6
2004-05-28 08:10:59 51°9.091 2°33.418 100.8 3.6 91 19.6
2004-05-28 08:11:03 51°9.092 2°33.424 100.4 3.6 89 19.6
2004-05-28 08:11:06 51°9.092 2°33.429 100.1 3.6 90 19.7
2004-05-28 08:11:13 51°9.092 2°33.44 99.3 3.6 86 19.6
2004-05-28 08:11:18 51°9.092 2°33.448 99 3.6 85 19.6
2004-05-28 08:11:24 51°9.093 2°33.458 98.3 3.6 87 19.6
2004-05-28 08:11:28 51°9.093 2°33.464 97.7 3.7 83 19.6
2004-05-28 08:11:34 51°9.094 2°33.474 97.4 3.7 85 19.6
2004-05-28 08:11:39 51°9.095 2°33.482 97 3.7 83 19.6
2004-05-28 08:11:42 51°9.095 2°33.487 96.5 3.7 82 19.6
2004-05-28 08:11:48 51°9.096 2°33.497 96.1 3.7 82 19.6
2004-05-28 08:11:54 51°9.097 2°33.506 95.9 3.7 82 19.6
2004-05-28 08:11:59 51°9.098 2°33.515 95.7 3.8 81 19.6
2004-05-28 08:12:04 51°9.098 2°33.523 95.8 3.8 83 19.6
2004-05-28 08:12:08 51°9.099 2°33.53 96 3.8 82 19.6
2004-05-28 08:12:14 51°9.1 2°33.54 96.3 3.8 82 19.6
2004-05-28 08:12:18 51°9.101 2°33.546 96.7 3.8 81 19.5
2004-05-28 08:12:23 51°9.101 2°33.555 97.1 3.8 81 19.5
2004-05-28 08:12:28 51°9.102 2°33.563 97.2 3.8 83 19.5
2004-05-28 08:12:34 51°9.103 2°33.573 97.7 3.8 82 19.5
2004-05-28 08:12:39 51°9.103 2°33.581 98.2 3.8 84 19.4
2004-05-28 08:12:44 51°9.104 2°33.59 98.7 3.8 82 19.5
2004-05-28 08:12:47 51°9.105 2°33.594 98.9 3.8 84 19.5
2004-05-28 08:12:53 51°9.105 2°33.605 99.5 3.8 84 19.5
2004-05-28 08:12:58 51°9.106 2°33.613 99.9 3.8 83 19.5
2004-05-28 08:13:02 51°9.106 2°33.62 100.4 3.8 85 19.5
2004-05-28 08:13:08 51°9.107 2°33.63 100.8 3.8 84 19.5
2004-05-28 08:13:14 51°9.107 2°33.64 101.2 3.8 86 19.5
2004-05-28 08:13:17 51°9.108 2°33.645 101.5 3.8 86 19.5
2004-05-28 08:13:22 51°9.108 2°33.653 101.6 3.8 85 19.4
2004-05-28 08:13:28 51°9.108 2°33.663 101.9 3.8 85 19.4
2004-05-28 08:13:33 51°9.109 2°33.671 102.2 3.8 86 19.4
2004-05-28 08:13:38 51°9.109 2°33.68 102.2 3.8 86 19.5
2004-05-28 08:13:44 51°9.11 2°33.69 102.3 3.8 85 19.4
2004-05-28 08:13:48 51°9.11 2°33.697 102.8 3.8 84 19.3
2004-05-28 08:13:54 51°9.111 2°33.707 102.9 3.8 88 19.4
2004-05-28 08:13:56 51°9.111 2°33.71 102.8 3.8 87 19.4
2004-05-28 08:14:03 51°9.111 2°33.722 103 3.8 85 19.4
2004-05-28 08:14:07 51°9.111 2°33.729 102.9 3.8 87 19.3
2004-05-28 08:14:14 51°9.112 2°33.741 103 3.8 85 19.4
2004-05-28 08:14:18 51°9.112 2°33.747 102.9 3.8 87 19.4
2004-05-28 08:14:24 51°9.113 2°33.758 102.6 3.8 86 19.5
2004-05-28 08:14:28 51°9.113 2°33.764 102.6 3.8 86 19.5
2004-05-28 08:14:32 51°9.113 2°33.771 102.4 3.8 85 19.4
2004-05-28 08:14:38 51°9.114 2°33.781 102.3 3.9 85 19.4
2004-05-28 08:14:43 51°9.114 2°33.79 102.2 3.8 85 19.5
2004-05-28 08:14:48 51°9.115 2°33.798 101.9 3.9 85 19.5
2004-05-28 08:14:52 51°9.115 2°33.805 102.1 3.9 85 19.4
2004-05-28 08:14:58 51°9.116 2°33.815 102 3.9 84 19.5
2004-05-28 08:15:04 51°9.116 2°33.825 101.7 3.9 86 19.5
2004-05-28 08:15:08 51°9.117 2°33.832 101.6 3.9 85 19.6
2004-05-28 08:15:14 51°9.117 2°33.842 101.5 3.8 85 19.6
2004-05-28 08:15:18 51°9.117 2°33.849 101.4 3.9 86 19.6
2004-05-28 08:15:23 51°9.118 2°33.858 101.4 3.9 87 19.6
2004-05-28 08:15:28 51°9.118 2°33.866 101.4 3.9 84 19.6
2004-05-28 08:15:40 51°9.119 2°33.886 101.3 3.8 86 19.5
2004-05-28 08:15:44 51°9.12 2°33.893 101.1 3.8 86 19.3
2004-05-28 08:15:51 51°9.12 2°33.905 101.3 3.8 85 19.3
2004-05-28 08:15:55 51°9.121 2°33.912 101.3 3.8 85 19.3
2004-05-28 08:16:00 51°9.121 2°33.92 101.4 3.8 85 19.2
2004-05-28 08:16:06 51°9.122 2°33.93 101.4 3.8 85 19.2
2004-05-28 08:16:10 51°9.122 2°33.937 101.3 3.8 85 19.1
2004-05-28 08:16:15 51°9.123 2°33.945 101.1 3.8 85 19.2
2004-05-28 08:16:20 51°9.123 2°33.954 100.9 3.8 85 19
2004-05-28 08:16:24 51°9.124 2°33.961 100.9 3.8 85 19
2004-05-28 08:16:31 51°9.124 2°33.972 100.9 3.8 85 19.1
2004-05-28 08:16:34 51°9.125 2°33.977 100.9 3.8 84 18.9
2004-05-28 08:16:40 51°9.125 2°33.987 100.8 3.8 86 19
2004-05-28 08:16:46 51°9.126 2°33.998 100.6 3.8 83 19
2004-05-28 08:16:50 51°9.126 2°34.004 100.7 3.9 82 19.2
2004-05-28 08:16:55 51°9.126 2°34.013 100.5 3.8 88 19.2
2004-05-28 08:16:58 51°9.127 2°34.018 100.5 3.8 84 18.8
2004-05-28 08:17:04 51°9.127 2°34.028 100.4 3.8 85 19.1
2004-05-28 08:17:11 51°9.128 2°34.039 100.5 3.8 83 18.8
2004-05-28 08:17:15 51°9.129 2°34.046 100.6 3.8 86 18.8
2004-05-28 08:17:20 51°9.129 2°34.055 100.8 3.8 83 18.9
2004-05-28 08:17:25 51°9.13 2°34.063 100.7 3.8 85 18.7
2004-05-28 08:17:30 51°9.13 2°34.071 100.6 3.8 85 18.7
2004-05-28 08:17:34 51°9.131 2°34.078 100.3 3.8 84 18.7
2004-05-28 08:17:40 51°9.131 2°34.088 100.3 3.8 85 18.7
2004-05-28 08:17:44 51°9.132 2°34.095 100.2 3.8 84 18.7
2004-05-28 08:17:50 51°9.132 2°34.105 100.3 3.8 85 18.6
2004-05-28 08:17:54 51°9.133 2°34.112 100.3 3.8 84 18.5
2004-05-28 08:18:08 51°9.134 2°34.135 100.5 3.8 84 18.5
2004-05-28 08:18:14 51°9.135 2°34.145 100.3 3.8 83 18.5
2004-05-28 08:18:18 51°9.135 2°34.152 100.3 3.8 85 18.6
2004-05-28 08:18:22 51°9.135 2°34.158 100.5 3.7 86 18.5
2004-05-28 08:18:29 51°9.136 2°34.17 100.6 3.7 86 18.5
2004-05-28 08:18:34 51°9.136 2°34.178 100.8 3.8 85 18.7
2004-05-28 08:18:38 51°9.137 2°34.185 100.9 3.7 84 18.4
2004-05-28 08:18:43 51°9.137 2°34.193 101 3.8 85 18.5
2004-05-28 08:18:48 51°9.138 2°34.201 100.9 3.7 87 18.4
2004-05-28 08:18:53 51°9.138 2°34.209 101 3.7 85 18.4
2004-05-28 08:18:58 51°9.138 2°34.218 101.3 3.8 84 18.4
2004-05-28 08:19:04 51°9.139 2°34.228 101.3 3.7 86 18.1
2004-05-28 08:19:08 51°9.139 2°34.234 101.4 3.7 86 18.3
2004-05-28 08:19:14 51°9.14 2°34.244 101.5 3.8 85 18.2
2004-05-28 08:19:18 51°9.14 2°34.251 101.6 3.8 84 18.3
2004-05-28 08:19:22 51°9.14 2°34.257 101.6 3.7 87 18.2
2004-05-28 08:19:28 51°9.141 2°34.267 101.6 3.7 85 18.2
2004-05-28 08:19:34 51°9.141 2°34.277 101.5 3.7 86 18.1
2004-05-28 08:19:37 51°9.142 2°34.282 101.6 3.7 85 18.3
2004-05-28 08:19:42 51°9.142 2°34.29 101.5 3.7 87 18.1
2004-05-28 08:19:48 51°9.142 2°34.3 101.5 3.7 85 18.2
2004-05-28 08:19:54 51°9.143 2°34.31 101.7 3.7 86 18.3
2004-05-28 08:19:59 51°9.143 2°34.318 101.5 3.7 86 18.1
2004-05-28 08:20:03 51°9.144 2°34.324 101.4 3.7 86 18.3
2004-05-28 08:20:08 51°9.144 2°34.333 101.6 3.7 86 18.2
2004-05-28 08:20:14 51°9.145 2°34.342 101.2 3.7 85 18.2
2004-05-28 08:20:18 51°9.145 2°34.349 101.2 3.7 84 18.2
2004-05-28 08:20:22 51°9.145 2°34.356 101.2 3.7 85 18.2
2004-05-28 08:20:33 51°9.147 2°34.373 100.8 3.7 85 18.3
2004-05-28 08:20:38 51°9.147 2°34.382 100.6 3.7 84 18.2
2004-05-28 08:20:42 51°9.147 2°34.388 100.4 3.7 85 18.2
2004-05-28 08:20:47 51°9.148 2°34.396 100.3 3.7 84 18.2
2004-05-28 08:20:52 51°9.149 2°34.404 100.2 3.7 84 18.1
2004-05-28 08:20:58 51°9.149 2°34.414 100.4 3.7 84 18
2004-05-28 08:21:03 51°9.15 2°34.422 100.5 3.7 85 17.8
2004-05-28 08:21:07 51°9.15 2°34.429 100.6 3.7 85 17.8
2004-05-28 08:21:13 51°9.15 2°34.439 100.8 3.7 85 17.7
2004-05-28 08:21:18 51°9.151 2°34.447 100.9 3.7 85 17.9
2004-05-28 08:21:22 51°9.151 2°34.453 101.1 3.7 85 17.6
2004-05-28 08:21:27 51°9.152 2°34.461 101.1 3.7 84 17.6
2004-05-28 08:21:33 51°9.152 2°34.471 101.3 3.7 85 17.9
2004-05-28 08:21:38 51°9.153 2°34.479 101.3 3.7 84 18.1
2004-05-28 08:21:43 51°9.153 2°34.487 101.2 3.7 84 18
2004-05-28 08:21:48 51°9.154 2°34.495 100.8 3.5 84 17.8
2004-05-28 08:21:52 51°9.154 2°34.501 100.5 3.5 83 18.1
2004-05-28 08:21:57 51°9.155 2°34.508 100.2 3.4 83 17.9
2004-05-28 08:22:02 51°9.155 2°34.515 100.3 3.2 82 18.1
2004-05-28 08:22:06 51°9.156 2°34.521 100.2 3.1 83 18.3
2004-05-28 08:22:11 51°9.156 2°34.527 100.1 3 82 18.1
2004-05-28 08:22:18 51°9.157 2°34.537 100.2 3 81 18.1
2004-05-28 08:22:23 51°9.158 2°34.544 100.3 3.1 83 18.1
2004-05-28 08:22:27 51°9.158 2°34.549 100.2 3.1 83 18
2004-05-28 08:22:30 51°9.159 2°34.554 100.1 3.2 82 18
2004-05-28 08:22:36 51°9.159 2°34.562 99.7 3.2 82 17.9
2004-05-28 08:22:43 51°9.16 2°34.572 99.5 3.3 83 17.9
2004-05-28 08:22:46 51°9.161 2°34.577 99.1 3.6 85 17.7
2004-05-28 08:22:52 51°9.161 2°34.587 98.7 3.9 84 17.5
2004-05-28 08:22:58 51°9.162 2°34.598 97.8 4 85 17.4
2004-05-28 08:23:02 51°9.162 2°34.605 97.2 4.1 82 17.3
2004-05-28 08:23:06 51°9.163 2°34.612 96.6 4.2 84 17.2
2004-05-28 08:23:12 51°9.163 2°34.623 96 4.2 83 17.5
2004-05-28 08:23:14 51°9.164 2°34.627 95.6 4.2 83 17.3
2004-05-28 08:23:23 51°9.165 2°34.644 95 4.3 85 17.3
2004-05-28 08:23:27 51°9.166 2°34.652 95 4.4 81 17.2
2004-05-28 08:23:32 51°9.166 2°34.662 94.7 4.4 84 17.1
2004-05-28 08:23:37 51°9.167 2°34.671 94.5 4.4 81 17
2004-05-28 08:23:43 51°9.168 2°34.683 94.4 4.5 82 16.7
2004-05-28 08:23:48 51°9.169 2°34.693 94.4 4.5 81 17
2004-05-28 08:23:52 51°9.17 2°34.701 94.1 4.5 83 16.8
2004-05-28 08:23:56 51°9.17 2°34.709 93.8 4.5 82 17.8
2004-05-28 08:24:03 51°9.172 2°34.723 93.9 4.5 82 18.7
2004-05-28 08:24:06 51°9.172 2°34.728 93.9 4.5 82 18.6
2004-05-28 08:24:12 51°9.173 2°34.74 94 4.6 82 18.6
2004-05-28 08:24:16 51°9.174 2°34.749 94.2 4.6 83 18.2
2004-05-28 08:24:23 51°9.175 2°34.763 94.4 4.6 82 18
2004-05-28 08:24:28 51°9.176 2°34.773 94.4 4.6 83 18.9
2004-05-28 08:24:32 51°9.176 2°34.781 94.8 4.6 83 18.2
2004-05-28 08:24:38 51°9.177 2°34.793 95.1 4.6 84 17.9
2004-05-28 08:24:43 51°9.178 2°34.803 95.1 4.6 83 18.5
2004-05-28 08:24:47 51°9.178 2°34.811 95 4.6 85 18
2004-05-28 08:24:52 51°9.179 2°34.821 95.2 4.6 84 18.2
2004-05-28 08:24:57 51°9.18 2°34.831 95.4 4.6 84 18
2004-05-28 08:25:03 51°9.18 2°34.843 95.5 4.6 84 18.8
2004-05-28 08:25:08 51°9.181 2°34.853 95.7 4.6 84 18
2004-05-28 08:25:12 51°9.181 2°34.861 96 4.6 85 18.5
2004-05-28 08:25:16 51°9.182 2°34.869 96.2 4.6 85 18.3
2004-05-28 08:25:22 51°9.182 2°34.881 96.5 4.6 86 18.4
2004-05-28 08:25:26 51°9.183 2°34.89 96.8 4.6 86 18.7
2004-05-28 08:25:32 51°9.183 2°34.902 96.9 4.6 86 18.1
2004-05-28 08:25:37 51°9.184 2°34.912 97.1 4.6 86 18.5
2004-05-28 08:25:42 51°9.184 2°34.922 97 4.6 87 18
2004-05-28 08:25:46 51°9.185 2°34.93 97.1 4.6 86 18.4
2004-05-28 08:25:52 51°9.185 2°34.942 97.1 4.6 86 18.2
2004-05-28 08:25:57 51°9.186 2°34.952 97.1 4.6 86 17.8
2004-05-28 08:26:03 51°9.186 2°34.964 97.1 4.6 87 18.2
2004-05-28 08:26:08 51°9.186 2°34.974 97.1 4.6 87 18.2
2004-05-28 08:26:12 51°9.187 2°34.982 97.1 4.6 87 18.1
2004-05-28 08:26:17 51°9.187 2°34.992 97.1 4.6 87 18.6
2004-05-28 08:26:22 51°9.188 2°35.003 97.1 4.6 86 17.8
2004-05-28 08:26:26 51°9.188 2°35.011 96.9 4.6 87 18.5
2004-05-28 08:26:32 51°9.188 2°35.023 96.9 4.6 86 17.6
2004-05-28 08:26:37 51°9.189 2°35.033 96.9 4.5 87 18.3
2004-05-28 08:26:42 51°9.189 2°35.043 97 4.6 88 17.7
2004-05-28 08:26:46 51°9.189 2°35.051 97 4.6 86 18.1
2004-05-28 08:26:52 51°9.19 2°35.063 97.1 4.6 87 17.7
2004-05-28 08:26:58 51°9.19 2°35.075 97.1 4.6 86 17.8
2004-05-28 08:27:02 51°9.19 2°35.083 96.9 4.6 87 17.9
2004-05-28 08:27:06 51°9.191 2°35.091 97 4.6 86 17.3
2004-05-28 08:27:12 51°9.191 2°35.103 96.9 4.5 87 18.1
2004-05-28 08:27:18 51°9.192 2°35.115 96.8 4.5 86 17.3
2004-05-28 08:27:23 51°9.192 2°35.125 96.8 4.6 85 18
2004-05-28 08:27:26 51°9.192 2°35.131 96.6 4.6 86 17.9
2004-05-28 08:27:32 51°9.193 2°35.143 96.4 4.6 85 17.6
2004-05-28 08:27:36 51°9.193 2°35.151 96.4 4.5 86 18.1
2004-05-28 08:27:43 51°9.194 2°35.165 96.5 4.6 86 18.2
2004-05-28 08:27:47 51°9.194 2°35.173 96.5 4.6 88 17.5
2004-05-28 08:27:52 51°9.195 2°35.183 96.5 4.5 86 17.8
2004-05-28 08:27:57 51°9.195 2°35.193 96.6 4.5 87 18.1
2004-05-28 08:28:02 51°9.195 2°35.202 96.8 4.3 86 17.2
2004-05-28 08:28:07 51°9.196 2°35.211 97.1 4.1 88 18.1
2004-05-28 08:28:12 51°9.196 2°35.22 97.3 4.1 84 17.5
2004-05-28 08:28:17 51°9.196 2°35.229 97.4 3.9 89 18.1
2004-05-28 08:28:23 51°9.197 2°35.239 97.6 3.8 87 17.5
2004-05-28 08:28:27 51°9.197 2°35.245 97.8 3.7 86 17.6
2004-05-28 08:28:32 51°9.197 2°35.253 97.9 3.6 87 17.9
2004-05-28 08:28:38 51°9.198 2°35.262 97.9 3.5 88 17.4
2004-05-28 08:28:43 51°9.198 2°35.27 98.1 3.4 87 17.6
2004-05-28 08:28:47 51°9.198 2°35.276 98.3 3.4 85 17.7
2004-05-28 08:28:52 51°9.198 2°35.283 98.4 3.3 87 17.4
2004-05-28 08:28:57 51°9.199 2°35.29 98.6 3.3 85 17.8
2004-05-28 08:29:03 51°9.199 2°35.298 98.6 3.2 87 17.9
2004-05-28 08:29:07 51°9.2 2°35.304 98.7 3.2 85 17.4
2004-05-28 08:29:12 51°9.2 2°35.311 98.6 3.1 87 17.9
2004-05-28 08:29:18 51°9.201 2°35.319 98.7 3.1 87 17.8
2004-05-28 08:29:23 51°9.201 2°35.326 98.7 3 87 17.8
2004-05-28 08:29:27 51°9.201 2°35.331 98.8 3 86 18.1
2004-05-28 08:29:32 51°9.201 2°35.337 98.7 3 87 18
2004-05-28 08:29:46 51°9.202 2°35.356 98.7 2.9 83 17.6
2004-05-28 08:29:54 51°9.203 2°35.366 98.4 2.9 85 18.2
2004-05-28 08:29:59 51°9.203 2°35.372 98.3 2.9 86 18
2004-05-28 08:30:04 51°9.203 2°35.379 98 2.8 85 17.4
2004-05-28 08:30:08 51°9.204 2°35.384 97.9 2.9 84 18.2
2004-05-28 08:30:14 51°9.204 2°35.391 97.8 2.8 83 17.7
2004-05-28 08:30:19 51°9.204 2°35.397 97.4 2.8 83 18
2004-05-28 08:30:22 51°9.205 2°35.401 97.1 2.8 86 17.7
2004-05-28 08:30:27 51°9.205 2°35.407 96.8 2.8 83 17.9
2004-05-28 08:30:34 51°9.206 2°35.415 96.4 2.8 86 17.9
2004-05-28 08:30:38 51°9.206 2°35.42 96.1 2.8 81 17.3
2004-05-28 08:30:44 51°9.207 2°35.428 95.8 2.8 87 18.1
2004-05-28 08:30:48 51°9.207 2°35.433 95.5 2.8 81 17.7
2004-05-28 08:30:54 51°9.207 2°35.44 95 2.7 84 18
2004-05-28 08:30:58 51°9.208 2°35.445 94.7 2.8 84 17.8
2004-05-28 08:31:02 51°9.208 2°35.45 94.9 2.7 85 17.2
2004-05-28 08:31:06 51°9.208 2°35.454 94.7 2.7 84 18.2
2004-05-28 08:31:13 51°9.209 2°35.463 94.7 2.7 86 17.9
2004-05-28 08:31:19 51°9.209 2°35.47 94.6 2.7 85 17.3
2004-05-28 08:31:23 51°9.21 2°35.475 94.4 2.7 83 18.2
2004-05-28 08:31:28 51°9.21 2°35.481 94.3 2.7 84 17.8
2004-05-28 08:31:34 51°9.211 2°35.488 94.3 2.7 85 17.8
2004-05-28 08:31:38 51°9.211 2°35.493 94.3 2.7 84 18.1
2004-05-28 08:31:43 51°9.211 2°35.499 94.2 2.8 83 17.6
2004-05-28 08:31:47 51°9.211 2°35.504 94.1 2.8 84 17.9
2004-05-28 08:31:54 51°9.212 2°35.512 94.1 2.8 83 18
2004-05-28 08:31:59 51°9.212 2°35.519 94.1 2.8 85 17.5
2004-05-28 08:32:04 51°9.213 2°35.525 94 2.8 83 18.1
2004-05-28 08:32:07 51°9.213 2°35.529 93.9 2.8 83 17.4
2004-05-28 08:32:14 51°9.213 2°35.537 93.7 2.8 82 18.1
2004-05-28 08:32:19 51°9.213 2°35.544 93.7 2.9 83 17.8
2004-05-28 08:32:24 51°9.214 2°35.55 93.7 2.8 85 17.4
2004-05-28 08:32:28 51°9.214 2°35.555 93.6 2.8 84 18.1
2004-05-28 08:32:34 51°9.215 2°35.562 93.6 2.8 85 17.5
2004-05-28 08:32:38 51°9.215 2°35.567 93.6 2.9 86 17.9
2004-05-28 08:32:41 51°9.215 2°35.571 93.4 2.9 82 17.7
2004-05-28 08:32:48 51°9.216 2°35.58 93.4 2.9 87 17.6
2004-05-28 08:32:54 51°9.216 2°35.587 93.4 2.9 82 18
2004-05-28 08:32:58 51°9.216 2°35.592 93.4 2.9 83 17.9
2004-05-28 08:33:02 51°9.216 2°35.597 93.3 2.9 86 17.4
2004-05-28 08:33:07 51°9.217 2°35.604 93.4 2.9 82 18
2004-05-28 08:33:13 51°9.217 2°35.611 93.3 2.9 86 17.5
2004-05-28 08:33:18 51°9.218 2°35.618 93.1 2.9 84 17.8
2004-05-28 08:33:24 51°9.218 2°35.625 93.3 2.9 85 17.2
2004-05-28 08:33:26 51°9.218 2°35.628 93.4 2.9 86 18.1
2004-05-28 08:33:34 51°9.219 2°35.638 93.4 2.9 86 17.6
2004-05-28 08:33:38 51°9.219 2°35.643 93.6 2.9 86 18
2004-05-28 08:33:43 51°9.219 2°35.649 93.7 2.8 85 17.8
2004-05-28 08:33:47 51°9.219 2°35.654 94.3 2.8 86 17.6
2004-05-28 08:33:54 51°9.22 2°35.663 94.9 2.8 87 17.9
2004-05-28 08:33:58 51°9.22 2°35.668 95.4 2.8 87 17.5
2004-05-28 08:34:04 51°9.22 2°35.675 96 2.7 89 17.9
2004-05-28 08:34:08 51°9.22 2°35.68 96.7 2.8 89 17.4
2004-05-28 08:34:14 51°9.22 2°35.687 97.1 2.7 87 18
2004-05-28 08:34:18 51°9.22 2°35.692 97.5 2.8 91 17.6
2004-05-28 08:34:23 51°9.22 2°35.698 97.7 2.8 90 17.8
2004-05-28 08:34:28 51°9.22 2°35.705 97.6 2.9 88 17.8
2004-05-28 08:34:34 51°9.22 2°35.712 97.7 2.9 90 17.6
2004-05-28 08:34:37 51°9.22 2°35.716 97.2 2.9 90 17.8
2004-05-28 08:34:48 51°9.22 2°35.73 96.8 2.7 90 17.8
2004-05-28 08:34:54 51°9.221 2°35.737 96.7 2.7 88 17.4
2004-05-28 08:34:58 51°9.221 2°35.741 96.5 2.6 89 17.7
2004-05-28 08:35:03 51°9.221 2°35.747 96.3 2.6 87 17.8
2004-05-28 08:35:08 51°9.221 2°35.753 96.1 2.5 90 17.5
2004-05-28 08:35:14 51°9.221 2°35.759 95.9 2.5 85 17.8
2004-05-28 08:35:17 51°9.221 2°35.762 95.8 2.5 88 17.5
2004-05-28 08:35:23 51°9.221 2°35.769 95.7 2.4 88 17.5
2004-05-28 08:35:28 51°9.221 2°35.774 95.5 2.4 88 17.4
2004-05-28 08:35:34 51°9.222 2°35.78 95.3 2.3 88 17.7
2004-05-28 08:35:38 51°9.222 2°35.784 95.1 2.3 87 17.6
2004-05-28 08:35:42 51°9.222 2°35.788 95 2.3 86 17.7
2004-05-28 08:35:47 51°9.222 2°35.793 94.6 2.2 88 17.6
2004-05-28 08:35:53 51°9.222 2°35.799 94.3 2.2 86 17.6
2004-05-28 08:35:58 51°9.222 2°35.804 93.8 2.2 88 17.5
2004-05-28 08:36:03 51°9.223 2°35.809 93.4 2.4 82 17.5
2004-05-28 08:36:08 51°9.224 2°35.815 92.2 2.8 85 17.6
2004-05-28 08:36:14 51°9.225 2°35.825 90.1 3.2 82 17.7
2004-05-28 08:36:18 51°9.226 2°35.831 85.8 3.8 79 17.6
2004-05-28 08:36:22 51°9.228 2°35.838 80.3 4.1 69 17.7
2004-05-28 08:36:27 51°9.23 2°35.847 74.5 4.5 65 17.7
2004-05-28 08:36:33 51°9.234 2°35.858 68.2 4.6 62 17.8
2004-05-28 08:36:38 51°9.238 2°35.867 62.1 5 53 17.6
2004-05-28 08:36:42 51°9.242 2°35.874 54.7 5.2 49 17.3
2004-05-28 08:36:48 51°9.249 2°35.884 48.5 5.4 44 17.7
2004-05-28 08:36:54 51°9.256 2°35.892 42.2 5.5 39 17.6
2004-05-28 08:36:58 51°9.262 2°35.897 36 5.6 32 17.5
2004-05-28 08:37:02 51°9.268 2°35.901 31 5.8 24 17.3
2004-05-28 08:37:06 51°9.275 2°35.905 24.4 6.5 17 17.4
2004-05-28 08:37:13 51°9.288 2°35.909 17.3 6.9 10 17.5
2004-05-28 08:37:19 51°9.301 2°35.911 11 7.7 6 17.5
2004-05-28 08:37:24 51°9.313 2°35.911 7.2 8.2 3 17.7
2004-05-28 08:37:28 51°9.323 2°35.911 3.6 8.9   17.7
2004-05-28 08:37:34 51°9.339 2°35.91 1.6 9.3 359 17.5
2004-05-28 08:37:38 51°9.351 2°35.908 359.7 10.3 355 17.9
2004-05-28 08:37:42 51°9.364 2°35.906 358.2 11.4 354 17.9
2004-05-28 08:37:46 51°9.377 2°35.903 356.9 12.1 352 17.8
2004-05-28 08:37:54 51°9.405 2°35.896 355.5 12.3 351 17.9
2004-05-28 08:37:59 51°9.423 2°35.891 354.9 13 351 17
2004-05-28 08:38:03 51°9.437 2°35.887 354.7 13.3 350 17.9
2004-05-28 08:38:08 51°9.456 2°35.882 354.7 13.6 351 17.4
2004-05-28 08:38:14 51°9.479 2°35.877 354.9 13.7 351 17.6
2004-05-28 08:38:18 51°9.494 2°35.873 355.2 13.8 351 18.3
2004-05-28 08:38:23 51°9.513 2°35.868 355.2 14 351 17.6
2004-05-28 08:38:28 51°9.533 2°35.863 354.9 14.1 351 17.9
2004-05-28 08:38:34 51°9.556 2°35.857 355 14.1 351 18.3
2004-05-28 08:38:39 51°9.575 2°35.852 355.1 14.2 351 18
2004-05-28 08:38:44 51°9.594 2°35.847 355.4 14.2 351 18.6
2004-05-28 08:38:49 51°9.614 2°35.843 355.6 14.2 352 18.8
2004-05-28 08:38:53 51°9.63 2°35.839 355.8 14.2 352 18.9
2004-05-28 08:38:58 51°9.649 2°35.835 355.8 14.2 351 18.3
2004-05-28 08:39:04 51°9.673 2°35.829 355.5 14.2 351 19
2004-05-28 08:39:06 51°9.68 2°35.827 355.5 14.2 352 18.9
2004-05-28 08:39:14 51°9.712 2°35.82 355.9 14.3 352 19.2
2004-05-28 08:39:19 51°9.732 2°35.816 356.2 14.4 352 19.3
2004-05-28 08:39:24 51°9.751 2°35.811 356.2 14.4 352 19.3
2004-05-28 08:39:28 51°9.767 2°35.808 355.9 14.4 352 19.2
2004-05-28 08:39:34 51°9.791 2°35.803 355.7 14.4 352 19.4
2004-05-28 08:39:38 51°9.807 2°35.8 356.2 14.4 353 19.4
2004-05-28 08:39:42 51°9.823 2°35.796 356.3 14.5 353 19.4
2004-05-28 08:39:48 51°9.847 2°35.792 356.3 14.5 353 19.4
2004-05-28 08:39:54 51°9.871 2°35.787 356.3 14.5 353 19.6
2004-05-28 08:40:06 51°9.919 2°35.779 356.8 14.5 354 19.2
2004-05-28 08:40:14 51°9.951 2°35.773 356.6 14.5 354 19
2004-05-28 08:40:19 51°9.971 2°35.769 356.2 14.5 353 18.8
2004-05-28 08:40:24 51°9.991 2°35.766 356.2 14.5 353 18.4
2004-05-28 08:40:28 51°10.007 2°35.763 356.3 14.5 354 18.3
2004-05-28 08:40:34 51°10.031 2°35.758 356.5 14.5 354 17.5
2004-05-28 08:40:38 51°10.047 2°35.756 356.5 14.5 353 17
2004-05-28 08:40:44 51°10.071 2°35.753 356.8 14.5 354 16.2
2004-05-28 08:40:48 51°10.087 2°35.753 358.6 14.5 359 15.4
2004-05-28 08:40:54 51°10.111 2°35.753 1.7 14.5   14.1
2004-05-28 08:40:59 51°10.131 2°35.755 4.3 14.4 3 14.3
2004-05-28 08:41:04 51°10.151 2°35.758 6.4 14.4 4 13.2
2004-05-28 08:41:06 51°10.159 2°35.76 8.3 14.4 6 12.8
2004-05-28 08:41:13 51°10.186 2°35.765 9.6 14.3 7 12.1
2004-05-28 08:41:19 51°10.21 2°35.769 10.7 14.3 7 11.7
2004-05-28 08:41:23 51°10.226 2°35.773 10.9 14.3 7 11.8
2004-05-28 08:41:29 51°10.249 2°35.778 11.4 14.3 8 11.9
2004-05-28 08:41:34 51°10.269 2°35.782 11.6 14.3 8 11.8
2004-05-28 08:41:39 51°10.289 2°35.786 11.6 14.3 7 11.5
2004-05-28 08:41:43 51°10.305 2°35.789 11.3 14.3 7 11.9
2004-05-28 08:41:48 51°10.325 2°35.793 11.1 14.4 7 12
2004-05-28 08:41:54 51°10.348 2°35.798 10.8 14.4 7 11.9
2004-05-28 08:41:58 51°10.364 2°35.801 10.8 14.5 7 12.2
2004-05-28 08:42:02 51°10.38 2°35.804 11.1 14.5 7 12.1
2004-05-28 08:42:07 51°10.4 2°35.808 11.1 14.4 7 11.8
2004-05-28 08:42:13 51°10.424 2°35.813 10.8 14.5 7 12.2
2004-05-28 08:42:19 51°10.448 2°35.818 10.9 14.5 8 11.7
2004-05-28 08:42:23 51°10.464 2°35.821 11.2 14.5 7 12.1
2004-05-28 08:42:28 51°10.484 2°35.825 11.2 14.4 7 12
2004-05-28 08:42:34 51°10.507 2°35.83 11 14.5 7 12
2004-05-28 08:42:38 51°10.523 2°35.834 10.8 14.5 8 11.7
2004-05-28 08:42:44 51°10.547 2°35.842 11.6 14.5 11 11.9
2004-05-28 08:42:48 51°10.562 2°35.849 16.6 14.5 16 11.5
2004-05-28 08:42:54 51°10.585 2°35.863 19.5 14.5 17 11.9
2004-05-28 08:42:58 51°10.599 2°35.873 23.8 14.5 21 11.8
2004-05-28 08:43:04 51°10.621 2°35.892 27.6 14.5 28 11.7
2004-05-28 08:43:08 51°10.634 2°35.905 32.4 14.5 31 12
2004-05-28 08:43:14 51°10.654 2°35.928 35.7 14.5 33 11.8
2004-05-28 08:43:19 51°10.669 2°35.949 39.6 14.5 39 11.7
2004-05-28 08:43:22 51°10.678 2°35.962 44.2 14.5 43 12.1
2004-05-28 08:43:27 51°10.692 2°35.985 47.7 14.4 46 12
2004-05-28 08:43:34 51°10.71 2°36.018 50.7 14.4 48 12.1
2004-05-28 08:43:38 51°10.721 2°36.037 52.7 14.5 49 12
2004-05-28 08:43:43 51°10.734 2°36.062 53.9 14.6 51 12.3
2004-05-28 08:43:46 51°10.741 2°36.077 55.4 14.5 51 12.2
2004-05-28 08:43:54 51°10.761 2°36.117 56.4 14.6 51 12.3
2004-05-28 08:43:59 51°10.775 2°36.141 55 14.6 48 12.3
2004-05-28 08:44:02 51°10.783 2°36.155 53 14.6 47 12.5
2004-05-28 08:44:06 51°10.794 2°36.173 51.6 14.6 46 11.9
2004-05-28 08:44:14 51°10.817 2°36.21 50.7 14.5 46 12.7
2004-05-28 08:44:18 51°10.828 2°36.228 50 14.6 45 12.5
2004-05-28 08:44:24 51°10.846 2°36.255 49.6 14.6 45 12.7
2004-05-28 08:44:28 51°10.857 2°36.273 49.1 14.6 44 12.4
2004-05-28 08:44:34 51°10.875 2°36.3 48.8 14.6 44 12.6
2004-05-28 08:44:37 51°10.883 2°36.313 48.7 14.6 44 12.8
2004-05-28 08:44:43 51°10.901 2°36.34 48.6 14.5 44 13
2004-05-28 08:44:49 51°10.918 2°36.367 49 14.6 44 12.9
2004-05-28 08:44:54 51°10.933 2°36.389 49.2 14.6 44 12.6
2004-05-28 08:44:58 51°10.944 2°36.407 49.2 14.6 44 12.9
2004-05-28 08:45:02 51°10.956 2°36.425 49.3 14.6 45 13.1
2004-05-28 08:45:09 51°10.976 2°36.456 49.3 14.5 44 13.1
2004-05-28 08:45:14 51°10.99 2°36.479 49.2 14.5 44 13.1
2004-05-28 08:45:18 51°11.002 2°36.497 49.3 14.5 44 13.3
2004-05-28 08:45:23 51°11.016 2°36.519 49.4 14.5 45 13.1
2004-05-28 08:45:27 51°11.028 2°36.537 49.8 14.5 45 13
2004-05-28 08:45:34 51°11.048 2°36.568 49.8 14.5 44 13.5
2004-05-28 08:45:39 51°11.062 2°36.591 49.3 14.5 44 13.5
2004-05-28 08:45:44 51°11.077 2°36.613 49.4 14.5 44 13.4
2004-05-28 08:45:48 51°11.088 2°36.631 49.6 14.5 44 13.6
2004-05-28 08:45:53 51°11.103 2°36.653 49.7 14.5 44 13.2
2004-05-28 08:45:58 51°11.117 2°36.675 50 14.5 44 13.1
2004-05-28 08:46:04 51°11.134 2°36.702 50 14.5 44 13.6
2004-05-28 08:46:08 51°11.146 2°36.72 49.8 14.5 44 13.5
2004-05-28 08:46:14 51°11.163 2°36.747 49.7 14.5 44 13.6
2004-05-28 08:46:19 51°11.177 2°36.77 49.6 14.5 45 13.6
2004-05-28 08:46:24 51°11.192 2°36.792 49.9 14.4 44 13.9
2004-05-28 08:46:28 51°11.203 2°36.81 49.8 14.4 45 13.8
2004-05-28 08:46:34 51°11.22 2°36.837 49.7 14.4 44 14.1
2004-05-28 08:46:38 51°11.231 2°36.855 50.1 14.4 45 14
2004-05-28 08:46:43 51°11.245 2°36.877 50.1 14.4 44 14.2
2004-05-28 08:46:49 51°11.263 2°36.903 49.8 14.4 44 14
2004-05-28 08:46:54 51°11.277 2°36.925 49.3 14.4 44 14
2004-05-28 08:46:58 51°11.289 2°36.943 49.3 14.4 44 14.2
2004-05-28 08:47:04 51°11.306 2°36.969 49.3 14.3 44 14.1
2004-05-28 08:47:08 51°11.317 2°36.987 49.8 14.3 44 14
2004-05-28 08:47:14 51°11.334 2°37.014 50 14.4 45 14.4
2004-05-28 08:47:19 51°11.348 2°37.036 50.1 14.3 44 14.2
2004-05-28 08:47:23 51°11.36 2°37.054 50 14.3 44 14.5
2004-05-28 08:47:29 51°11.377 2°37.08 50 14.3 44 14.4
2004-05-28 08:47:33 51°11.388 2°37.098 49.8 14.3 44 14.6
2004-05-28 08:47:38 51°11.402 2°37.12 50.3 14.4 45 14.4
2004-05-28 08:47:42 51°11.414 2°37.138 50.3 14.4 44 14.6
2004-05-28 08:47:46 51°11.425 2°37.156 50 14.3 44 14.1
2004-05-28 08:47:54 51°11.448 2°37.191 49.8 14.3 44 14.6
2004-05-28 08:47:58 51°11.459 2°37.209 50 14.3 44 14.7
2004-05-28 08:48:04 51°11.477 2°37.235 50 14.3 44 14.7
2004-05-28 08:48:08 51°11.488 2°37.253 49.8 14.4 45 14.6
2004-05-28 08:48:14 51°11.505 2°37.28 49.9 14.4 44 14.8
2004-05-28 08:48:19 51°11.52 2°37.302 50.2 14.4 45 14.8
2004-05-28 08:48:23 51°11.531 2°37.32 50.3 14.4 44 14.8
2004-05-28 08:48:28 51°11.545 2°37.342 50 14.4 44 14.8
2004-05-28 08:48:34 51°11.563 2°37.368 50 14.4 44 14.8
2004-05-28 08:48:38 51°11.574 2°37.386 49.9 14.4 45 14.9
2004-05-28 08:48:42 51°11.585 2°37.404 50 14.3 45 14.8
2004-05-28 08:48:48 51°11.602 2°37.431 50.7 14.4 45 14.8
2004-05-28 08:48:53 51°11.616 2°37.454 50.8 14.4 45 14.9
2004-05-28 08:48:59 51°11.633 2°37.482 51.5 14.4 47 14.9
2004-05-28 08:49:03 51°11.643 2°37.5 52.4 14.4 47 15
2004-05-28 08:49:08 51°11.657 2°37.524 53 14.3 48 14.9
2004-05-28 08:49:14 51°11.673 2°37.552 53.5 14.4 48 15
2004-05-28 08:49:18 51°11.683 2°37.57 53.6 14.3 48 15
2004-05-28 08:49:22 51°11.694 2°37.589 53.5 14.4 47 15
2004-05-28 08:49:26 51°11.705 2°37.607 52.9 14.4 47 14.8
2004-05-28 08:49:34 51°11.727 2°37.644 52.9 14.3 47 14.9
2004-05-28 08:49:38 51°11.737 2°37.664 53.6 14.3 47 15
2004-05-28 08:49:43 51°11.751 2°37.687 53.5 14.4 47 14.8
2004-05-28 08:49:49 51°11.767 2°37.715 53 14.4 47 15.1
2004-05-28 08:49:53 51°11.778 2°37.733 53 14.4 47 14.7
2004-05-28 08:49:59 51°11.794 2°37.761 53.4 14.3 48 15
2004-05-28 08:50:03 51°11.805 2°37.78 53.7 14.4 47 15
2004-05-28 08:50:08 51°11.818 2°37.804 53.2 14.4 48 14.9
2004-05-28 08:50:14 51°11.834 2°37.832 53.5 14.4 48 14.9
2004-05-28 08:50:18 51°11.845 2°37.851 53.2 14.4 47 15
2004-05-28 08:50:24 51°11.861 2°37.879 53 14.4 47 14.6
2004-05-28 08:50:28 51°11.872 2°37.897 53.1 14.4 47 15
2004-05-28 08:50:33 51°11.886 2°37.921 53.1 14.4 47 14.8
2004-05-28 08:50:38 51°11.899 2°37.944 53.7 14.4 47 14.9
2004-05-28 08:50:43 51°11.912 2°37.968 53.7 14.4 48 14.9
2004-05-28 08:50:48 51°11.926 2°37.991 53.4 14.4 47 14.8
2004-05-28 08:50:54 51°11.942 2°38.019 53 14.4 47 15
2004-05-28 08:50:59 51°11.956 2°38.043 53.2 14.4 47 15
2004-05-28 08:51:03 51°11.967 2°38.061 53.1 14.4 47 15
2004-05-28 08:51:07 51°11.978 2°38.08 53.2 14.4 47 15
2004-05-28 08:51:14 51°11.996 2°38.113 53.3 14.4 48 15
2004-05-28 08:51:18 51°12.007 2°38.132 53.3 14.4 47 15
2004-05-28 08:51:24 51°12.024 2°38.16 53.6 14.4 48 15
2004-05-28 08:51:26 51°12.029 2°38.169 53.6 14.4 48 14.8
2004-05-28 08:51:34 51°12.051 2°38.207 53.6 14.4 48 14.7
2004-05-28 08:51:38 51°12.061 2°38.226 53.7 14.4 48 14.9
2004-05-28 08:51:44 51°12.077 2°38.254 53.7 14.4 48 15.1
2004-05-28 08:51:48 51°12.088 2°38.273 53.7 14.4 48 14.7
2004-05-28 08:51:54 51°12.104 2°38.301 53.6 14.4 48 14.9
2004-05-28 08:51:58 51°12.115 2°38.32 53.7 14.4 48 14.8
2004-05-28 08:52:04 51°12.131 2°38.348 53.7 14.4 48 14.9
2004-05-28 08:52:06 51°12.136 2°38.358 53.7 14.4 48 14.7
2004-05-28 08:52:14 51°12.158 2°38.396 53.6 14.4 48 14.8
2004-05-28 08:52:17 51°12.166 2°38.41 53.4 14.4 48 14.8
2004-05-28 08:52:24 51°12.185 2°38.442 53.1 14.4 47 14.9
2004-05-28 08:52:27 51°12.193 2°38.457 53.2 14.5 47 14.7
2004-05-28 08:52:34 51°12.212 2°38.489 53.1 14.5 47 14.7
2004-05-28 08:52:47 51°12.248 2°38.55 52.9 14.4 47 14.7
2004-05-28 08:52:54 51°12.267 2°38.583 53.1 14.4 48 14.8
2004-05-28 08:52:59 51°12.28 2°38.606 53.6 14.4 47 14.7
2004-05-28 08:53:03 51°12.291 2°38.625 53.1 14.4 48 14.8
2004-05-28 08:53:08 51°12.305 2°38.649 53.2 14.4 47 14.7
2004-05-28 08:53:14 51°12.321 2°38.677 53.2 14.4 47 14.4
2004-05-28 08:53:18 51°12.331 2°38.696 53.3 14.4 48 14.6
2004-05-28 08:53:22 51°12.342 2°38.715 53.5 14.5 47 14.5
2004-05-28 08:53:26 51°12.353 2°38.734 53.2 14.4 48 14.6
2004-05-28 08:53:34 51°12.375 2°38.771 53.3 14.4 48 14.4
2004-05-28 08:53:39 51°12.388 2°38.795 53.4 14.5 48 14.6
2004-05-28 08:53:44 51°12.402 2°38.819 53.4 14.5 47 14.5
2004-05-28 08:53:49 51°12.415 2°38.842 53 14.4 48 14.4
2004-05-28 08:53:54 51°12.429 2°38.866 53.1 14.4 48 14.4
2004-05-28 08:53:58 51°12.44 2°38.885 53.2 14.5 48 14.3
2004-05-28 08:54:02 51°12.451 2°38.903 53.2 14.4 47 14.5
2004-05-28 08:54:07 51°12.465 2°38.926 53.1 14.5 47 14.4
2004-05-28 08:54:13 51°12.481 2°38.955 53.1 14.5 48 14.5
2004-05-28 08:54:19 51°12.497 2°38.983 53.1 14.4 47 14.2
2004-05-28 08:54:24 51°12.511 2°39.006 53.3 14.4 48 14.4
2004-05-28 08:54:28 51°12.521 2°39.025 53.3 14.4 48 14.6
2004-05-28 08:54:34 51°12.538 2°39.053 53.3 14.4 47 14.5
2004-05-28 08:54:38 51°12.549 2°39.072 52.9 14.5 48 14.2
2004-05-28 08:54:42 51°12.56 2°39.091 52.9 14.4 47 14.2
2004-05-28 08:54:49 51°12.579 2°39.124 52.9 14.4 47 14.2
2004-05-28 08:54:54 51°12.592 2°39.147 53.3 14.4 47 14
2004-05-28 08:54:59 51°12.606 2°39.17 53.3 14.4 47 14.4
2004-05-28 08:55:04 51°12.62 2°39.194 53.2 14.4 47 14.4
2004-05-28 08:55:07 51°12.628 2°39.208 52.9 14.5 47 14.5
2004-05-28 08:55:14 51°12.647 2°39.241 53 14.5 48 14.2
2004-05-28 08:55:18 51°12.658 2°39.259 53.2 14.5 48 14.6
2004-05-28 08:55:22 51°12.668 2°39.278 53.1 14.4 48 14.5
2004-05-28 08:55:27 51°12.682 2°39.302 53.3 14.5 47 14.4
2004-05-28 08:55:34 51°12.701 2°39.335 53.2 14.5 47 14.3
2004-05-28 08:55:38 51°12.712 2°39.353 53.1 14.5 47 14.3
2004-05-28 08:55:44 51°12.728 2°39.381 53 14.5 47 14.3
2004-05-28 08:55:48 51°12.739 2°39.4 53 14.4 47 14.2
2004-05-28 08:55:54 51°12.755 2°39.429 53.3 14.5 48 12.7
2004-05-28 08:55:58 51°12.766 2°39.448 53.7 14.4 48 13.7